Time;durP1;ratioP1;P1;durP2;ratioP2;P2;SDS_P1;SDS_P2;PMS_P1;PMS_P2;Temp;Humidity;BMP_temperature;BMP_pressure;BME280_temperature;BME280_humidity;BME280_pressure;Samples;Min_cycle;Max_cycle;Signal;HPM_P1;HPM_P2
2023/03/25 00:02:12;;;;;;;14.70;6.70;;;;;;;11.22;92.42;99463.07;104678;1268;100360;-77
2023/03/25 00:04:59;;;;;;;10.60;6.90;;;;;;;11.21;92.41;99457.51;104811;1269;98566;-76
2023/03/25 00:07:47;;;;;;;10.00;6.90;;;;;;;11.17;92.31;99454.36;104681;1270;98006;-77
2023/03/25 00:10:33;;;;;;;13.80;7.10;;;;;;;11.14;92.46;99453.14;104863;1266;99180;-77
2023/03/25 00:13:18;;;;;;;10.40;7.10;;;;;;;11.13;92.68;99469.45;104844;1269;102636;-76
2023/03/25 00:16:05;;;;;;;11.30;6.80;;;;;;;11.09;92.67;99472.90;104750;1271;99106;-76
2023/03/25 00:18:51;;;;;;;10.60;7.10;;;;;;;11.07;92.87;99467.63;104765;1270;97971;-79
2023/03/25 00:21:38;;;;;;;13.20;7.10;;;;;;;11.04;92.77;99460.23;104660;1264;98635;-77
2023/03/25 00:24:24;;;;;;;11.80;7.30;;;;;;;11.01;92.91;99467.96;104677;1268;98532;-76
2023/03/25 00:27:09;;;;;;;14.20;6.60;;;;;;;11.00;92.94;99467.27;104637;1274;102660;-78
2023/03/25 00:29:55;;;;;;;11.80;7.20;;;;;;;10.97;93.05;99471.25;104772;1269;100337;-77
2023/03/25 00:32:44;;;;;;;12.50;7.60;;;;;;;10.96;93.00;99465.16;104900;1268;98588;-79
2023/03/25 00:35:30;;;;;;;9.00;6.40;;;;;;;10.94;92.93;99463.95;104818;1265;99134;-75
2023/03/25 00:38:15;;;;;;;12.60;7.40;;;;;;;10.92;93.02;99460.91;104780;1271;98539;-78
2023/03/25 00:41:21;;;;;;;13.80;7.40;;;;;;;10.89;92.99;99462.41;104945;1264;101476;-76
2023/03/25 00:44:11;;;;;;;11.80;7.20;;;;;;;10.88;93.14;99463.98;105617;1267;100496;-79
2023/03/25 00:46:56;;;;;;;10.10;7.30;;;;;;;10.87;92.91;99462.42;104913;1269;99341;-77
2023/03/25 00:49:42;;;;;;;12.70;6.80;;;;;;;10.83;92.88;99465.77;104704;1264;98047;-77
2023/03/25 00:52:27;;;;;;;12.70;8.00;;;;;;;10.80;92.84;99468.60;104714;1264;98483;-76
2023/03/25 00:55:13;;;;;;;11.80;7.90;;;;;;;10.75;93.00;99467.92;104775;1264;101349;-77
2023/03/25 00:57:59;;;;;;;15.60;8.60;;;;;;;10.72;93.12;99471.15;104664;1269;107791;-76
2023/03/25 01:00:47;;;;;;;13.00;7.80;;;;;;;10.71;93.09;99473.27;104886;1264;97906;-76
2023/03/25 01:03:35;;;;;;;15.10;8.30;;;;;;;10.68;92.95;99471.93;104872;1269;97979;-77
2023/03/25 01:06:23;;;;;;;10.80;7.60;;;;;;;10.64;93.01;99470.88;104716;1264;98509;-78
2023/03/25 01:09:12;;;;;;;11.60;7.40;;;;;;;10.63;92.98;99470.02;104803;1270;101405;-78
2023/03/25 01:11:58;;;;;;;13.70;9.60;;;;;;;10.61;93.01;99463.94;104650;1270;100311;-77
2023/03/25 01:14:43;;;;;;;15.30;10.20;;;;;;;10.61;93.12;99459.20;104745;1281;97972;-76
2023/03/25 01:17:29;;;;;;;14.10;9.00;;;;;;;10.59;92.99;99455.86;104845;1269;97991;-78
2023/03/25 01:20:14;;;;;;;13.00;9.90;;;;;;;10.57;92.91;99459.55;104849;1269;99792;-77
2023/03/25 01:23:00;;;;;;;11.80;8.90;;;;;;;10.55;92.89;99457.33;104785;1264;102036;-75
2023/03/25 01:25:46;;;;;;;16.30;10.80;;;;;;;10.52;93.02;99455.41;104754;1269;100372;-76
2023/03/25 01:28:31;;;;;;;13.50;10.70;;;;;;;10.50;93.18;99454.15;104594;1270;98081;-78
2023/03/25 01:31:17;;;;;;;18.30;13.10;;;;;;;10.47;92.90;99444.23;104706;1267;97915;-75
2023/03/25 01:34:02;;;;;;;25.90;18.80;;;;;;;10.44;92.96;99444.49;104816;1269;98635;-77
2023/03/25 01:36:48;;;;;;;15.40;11.00;;;;;;;10.41;93.02;99449.48;104826;1264;101577;-78
2023/03/25 01:39:33;;;;;;;14.60;9.90;;;;;;;10.39;93.12;99453.70;104824;1264;99218;-79
2023/03/25 01:42:19;;;;;;;15.40;9.00;;;;;;;10.37;93.33;99458.65;104876;1267;99549;-76
2023/03/25 01:45:19;;;;;;;14.60;9.00;;;;;;;10.35;93.34;99461.95;104814;1264;97999;-76
2023/03/25 01:48:09;;;;;;;11.80;7.50;;;;;;;10.36;93.26;99455.27;104661;1267;98580;-75
2023/03/25 01:51:01;;;;;;;17.30;9.60;;;;;;;10.34;93.19;99451.84;104663;1267;101338;-75
2023/03/25 01:53:48;;;;;;;14.00;8.50;;;;;;;10.32;93.25;99457.04;104793;1264;100314;-76
2023/03/25 01:56:37;;;;;;;16.50;10.00;;;;;;;10.30;93.56;99463.01;104980;1267;98958;-76
2023/03/25 01:59:27;;;;;;;10.60;7.80;;;;;;;10.28;93.60;99462.56;104839;1267;99136;-78
2023/03/25 02:02:17;;;;;;;11.60;8.20;;;;;;;10.28;93.62;99462.27;104715;1270;97901;-76
2023/03/25 02:05:10;;;;;;;12.60;8.40;;;;;;;10.27;93.50;99462.06;105038;1264;101855;-77
2023/03/25 02:07:56;;;;;;;14.00;9.40;;;;;;;10.27;93.40;99463.67;105379;1264;100355;-76
2023/03/25 02:10:46;;;;;;;13.90;9.30;;;;;;;10.27;93.37;99470.39;104480;1267;99042;-76
2023/03/25 02:13:33;;;;;;;15.90;9.30;;;;;;;10.24;93.53;99473.71;104635;1264;98002;-76
2023/03/25 02:16:24;;;;;;;13.80;9.60;;;;;;;10.23;93.49;99471.60;104685;1264;98412;-77
2023/03/25 02:19:34;;;;;;;14.90;8.90;;;;;;;10.17;93.48;99465.58;104981;1266;103260;-78
2023/03/25 02:22:37;;;;;;;12.40;8.50;;;;;;;10.15;93.62;99466.61;105028;1268;100363;-77
2023/03/25 02:26:00;;;;;;;12.50;8.90;;;;;;;10.14;93.75;99460.29;104884;1264;99966;-75
2023/03/25 02:29:13;;;;;;;11.20;7.80;;;;;;;10.09;93.78;99460.77;104841;1270;98068;-76
2023/03/25 02:32:23;;;;;;;13.50;8.90;;;;;;;10.05;93.88;99457.69;105039;1271;98738;-77
2023/03/25 02:35:32;;;;;;;14.30;8.70;;;;;;;10.04;94.20;99457.85;104534;1264;102642;-76
2023/03/25 02:38:30;;;;;;;13.90;9.00;;;;;;;10.03;94.25;99454.55;104773;1265;100353;-77
2023/03/25 02:41:34;;;;;;;15.80;9.20;;;;;;;10.00;94.12;99452.06;104613;1264;98147;-76
2023/03/25 02:44:37;;;;;;;13.70;9.10;;;;;;;9.98;94.16;99456.42;104701;1264;97996;-77
2023/03/25 02:47:26;;;;;;;13.30;9.20;;;;;;;9.96;94.41;99458.04;104587;1264;97886;-76
2023/03/25 02:50:20;;;;;;;14.20;9.60;;;;;;;9.94;94.35;99459.86;104667;1264;101470;-76
2023/03/25 02:53:12;;;;;;;14.10;9.10;;;;;;;9.90;94.27;99456.25;104627;1270;99110;-76
2023/03/25 02:56:02;;;;;;;14.00;9.20;;;;;;;9.88;94.41;99451.02;104677;1268;97971;-76
2023/03/25 02:58:50;;;;;;;11.50;8.00;;;;;;;9.82;94.47;99452.23;104791;1268;98064;-76
2023/03/25 03:01:35;;;;;;;13.40;8.60;;;;;;;9.77;94.73;99455.00;104559;1267;98539;-76
2023/03/25 03:04:21;;;;;;;12.60;9.30;;;;;;;9.75;94.96;99453.93;104581;1271;101458;-76
2023/03/25 03:07:09;;;;;;;13.60;9.00;;;;;;;9.73;94.90;99447.56;104623;1264;100941;-75
2023/03/25 03:10:18;;;;;;;15.00;10.40;;;;;;;9.72;94.95;99453.41;105042;1265;98026;-76
2023/03/25 03:13:27;;;;;;;14.90;8.90;;;;;;;9.70;94.83;99458.30;104688;1265;97983;-76
2023/03/25 03:16:25;;;;;;;15.10;9.00;;;;;;;9.68;95.07;99461.52;104774;1264;98488;-76
2023/03/25 03:19:37;;;;;;;15.00;9.20;;;;;;;9.65;94.88;99466.66;104832;1265;102712;-78
2023/03/25 03:22:44;;;;;;;13.90;9.40;;;;;;;9.62;95.16;99470.70;104667;1272;99147;-77
2023/03/25 03:25:31;;;;;;;18.30;10.00;;;;;;;9.60;95.26;99468.82;104683;1279;100121;-76
2023/03/25 03:28:29;;;;;;;14.00;9.00;;;;;;;9.59;95.04;99466.42;104637;1269;99253;-77
2023/03/25 03:31:24;;;;;;;14.90;9.70;;;;;;;9.59;95.09;99460.63;104633;1270;97996;-75
2023/03/25 03:34:17;;;;;;;16.00;10.20;;;;;;;9.58;95.23;99457.34;104873;1268;102005;-78
2023/03/25 03:37:05;;;;;;;15.50;10.00;;;;;;;9.58;95.44;99453.64;104861;1267;100868;-76
2023/03/25 03:39:53;;;;;;;15.10;10.00;;;;;;;9.56;95.17;99453.56;104717;1268;98741;-76
2023/03/25 03:42:44;;;;;;;16.60;11.00;;;;;;;9.53;95.33;99453.52;104721;1270;97996;-76
2023/03/25 03:45:36;;;;;;;18.30;12.50;;;;;;;9.53;95.46;99456.83;104856;1267;97779;-75
2023/03/25 03:48:37;;;;;;;14.80;10.90;;;;;;;9.51;95.43;99457.23;104697;1268;102242;-75
2023/03/25 03:51:35;;;;;;;21.10;16.00;;;;;;;9.51;95.67;99453.48;104917;1267;99771;-77
2023/03/25 03:54:32;;;;;;;21.60;14.10;;;;;;;9.52;95.59;99460.89;104604;1268;99363;-76
2023/03/25 03:57:40;;;;;;;23.70;16.90;;;;;;;9.52;95.56;99456.89;104779;1264;97768;-77
2023/03/25 04:00:35;;;;;;;14.80;11.00;;;;;;;9.50;95.75;99452.00;104837;1264;98428;-78
2023/03/25 04:03:37;;;;;;;15.90;10.80;;;;;;;9.49;95.59;99452.00;105095;1267;101357;-77
2023/03/25 04:06:37;;;;;;;13.90;10.00;;;;;;;9.50;95.50;99458.66;104572;1264;100101;-77
2023/03/25 04:09:32;;;;;;;16.60;10.60;;;;;;;9.49;95.52;99461.84;104604;1264;99260;-76
2023/03/25 04:12:23;;;;;;;15.30;10.20;;;;;;;9.46;95.81;99463.27;104682;1264;97988;-77
2023/03/25 04:15:09;;;;;;;13.70;9.70;;;;;;;9.45;95.69;99464.31;104759;1264;97943;-76
2023/03/25 04:17:54;;;;;;;17.30;9.90;;;;;;;9.44;95.59;99467.88;104765;1269;102599;-77
2023/03/25 04:20:43;;;;;;;19.00;11.40;;;;;;;9.42;95.69;99468.66;104658;1270;100362;-76
2023/03/25 04:23:29;;;;;;;15.30;10.10;;;;;;;9.40;95.71;99471.88;104674;1268;98082;-76
2023/03/25 04:26:14;;;;;;;15.80;10.20;;;;;;;9.40;95.68;99469.94;104748;1264;97977;-77
2023/03/25 04:29:00;;;;;;;14.50;10.60;;;;;;;9.39;95.72;99475.45;104803;1268;98516;-78
2023/03/25 04:31:49;;;;;;;15.30;10.80;;;;;;;9.37;95.68;99472.86;104871;1272;101366;-77
2023/03/25 04:34:34;;;;;;;15.00;10.10;;;;;;;9.36;95.79;99476.77;105390;1264;99104;-83
2023/03/25 04:37:21;;;;;;;16.80;10.90;;;;;;;9.33;95.69;99472.81;105575;1270;97941;-78
2023/03/25 04:40:08;;;;;;;16.10;10.70;;;;;;;9.32;95.86;99476.89;105223;1267;98489;-83
2023/03/25 04:42:55;;;;;;;18.20;10.00;;;;;;;9.34;96.04;99473.22;105504;1270;97954;-82
2023/03/25 04:45:48;;;;;;;17.10;11.80;;;;;;;9.36;95.66;99465.88;105743;1267;102144;-81
2023/03/25 04:48:40;;;;;;;16.60;11.90;;;;;;;9.38;95.70;99465.34;106010;1264;108764;-79
2023/03/25 04:51:25;;;;;;;18.40;12.80;;;;;;;9.40;95.68;99473.94;105765;1272;99011;-79
2023/03/25 04:54:11;;;;;;;19.30;13.30;;;;;;;9.40;95.52;99483.89;105470;1264;97894;-80
2023/03/25 04:56:57;;;;;;;20.50;12.50;;;;;;;9.39;95.56;99476.85;105393;1264;97965;-79
2023/03/25 04:59:43;;;;;;;17.50;11.50;;;;;;;9.38;95.25;99479.48;105447;1264;101498;-84
2023/03/25 05:02:29;;;;;;;18.50;11.40;;;;;;;9.37;95.09;99482.73;105637;1264;99536;-80
2023/03/25 05:05:18;;;;;;;18.50;12.90;;;;;;;9.37;95.07;99483.92;105639;1268;99989;-86
2023/03/25 05:08:04;;;;;;;16.70;11.90;;;;;;;9.39;94.91;99487.67;105607;1273;98012;-82
2023/03/25 05:10:51;;;;;;;17.90;11.40;;;;;;;9.39;94.65;99483.35;105670;1265;98007;-84
2023/03/25 05:13:36;;;;;;;18.60;12.10;;;;;;;9.38;94.78;99480.46;105592;1267;101329;-83
2023/03/25 05:16:22;;;;;;;19.10;12.00;;;;;;;9.37;94.79;99474.63;105377;1265;99269;-83
2023/03/25 05:19:08;;;;;;;16.80;10.50;;;;;;;9.38;94.76;99474.55;105828;1264;99033;-85
2023/03/25 05:21:55;;;;;;;16.90;11.10;;;;;;;9.39;94.76;99476.73;105617;1265;98038;-86
2023/03/25 05:24:46;;;;;;;18.00;11.90;;;;;;;9.37;94.60;99476.77;105472;1264;99159;-84
2023/03/25 05:27:33;;;;;;;15.10;10.80;;;;;;;9.34;94.30;99481.45;105586;1264;101342;-81
2023/03/25 05:30:19;;;;;;;17.50;11.60;;;;;;;9.31;93.96;99483.84;105394;1264;100842;-81
2023/03/25 05:33:05;;;;;;;15.60;11.30;;;;;;;9.30;94.23;99490.04;105252;1264;98107;-80
2023/03/25 05:35:50;;;;;;;16.00;12.00;;;;;;;9.30;94.39;99491.89;105505;1264;98066;-83
2023/03/25 05:38:40;;;;;;;18.90;12.30;;;;;;;9.30;94.35;99490.70;105721;1264;98443;-85
2023/03/25 05:41:37;;;;;;;17.50;11.10;;;;;;;9.30;94.35;99497.86;105627;1267;101347;-83
2023/03/25 05:44:25;;;;;;;20.70;12.50;;;;;;;9.29;94.34;99497.11;105573;1265;100362;-84
2023/03/25 05:47:10;;;;;;;17.60;12.00;;;;;;;9.29;94.51;99501.96;105680;1271;98152;-82
2023/03/25 05:49:56;;;;;;;18.60;12.10;;;;;;;9.31;94.66;99505.18;105657;1264;97967;-84
2023/03/25 05:52:43;;;;;;;17.20;11.90;;;;;;;9.28;94.73;99507.94;105648;1263;98430;-81
2023/03/25 05:55:29;;;;;;;18.80;11.90;;;;;;;9.25;95.33;99504.68;105629;1268;102649;-82
2023/03/25 05:58:16;;;;;;;17.70;12.40;;;;;;;9.27;95.21;99506.63;105509;1264;99924;-83
2023/03/25 06:01:03;;;;;;;18.60;11.60;;;;;;;9.25;95.53;99505.83;105512;1264;98660;-86
2023/03/25 06:03:49;;;;;;;22.70;12.80;;;;;;;9.26;96.03;99505.53;105638;1264;97897;-84
2023/03/25 06:06:34;;;;;;;17.40;12.10;;;;;;;9.27;96.13;99500.20;105508;1268;99583;-83
2023/03/25 06:09:20;;;;;;;18.00;11.60;;;;;;;9.27;96.30;99497.99;105606;1267;102738;-82
2023/03/25 06:12:06;;;;;;;18.60;11.20;;;;;;;9.32;96.57;99498.56;105571;1265;99736;-82
2023/03/25 06:14:53;;;;;;;19.80;12.40;;;;;;;9.36;96.50;99502.02;105855;1262;98575;-77
2023/03/25 06:17:39;;;;;;;20.50;13.00;;;;;;;9.40;96.87;99500.77;104733;1268;97996;-77
2023/03/25 06:20:25;;;;;;;18.50;12.10;;;;;;;9.45;96.99;99504.11;104746;1267;98542;-77
2023/03/25 06:23:11;;;;;;;19.60;12.30;;;;;;;9.48;96.94;99508.63;104755;1268;101349;-78
2023/03/25 06:25:57;;;;;;;18.30;11.90;;;;;;;9.51;96.94;99507.52;104740;1264;99169;-76
2023/03/25 06:28:43;;;;;;;20.20;11.50;;;;;;;9.55;97.31;99504.31;104790;1264;99089;-75
2023/03/25 06:31:32;;;;;;;17.80;12.40;;;;;;;9.57;97.05;99502.17;104662;1268;98003;-77
2023/03/25 06:34:17;;;;;;;16.60;11.50;;;;;;;9.60;97.11;99500.77;104740;1265;97888;-74
2023/03/25 06:37:03;;;;;;;19.60;12.00;;;;;;;9.62;97.06;99500.48;104764;1265;101374;-75
2023/03/25 06:39:48;;;;;;;18.70;13.20;;;;;;;9.62;97.11;99502.78;104709;1268;99137;-77
2023/03/25 06:42:41;;;;;;;17.20;11.30;;;;;;;9.63;97.03;99512.21;104693;1269;99310;-77
2023/03/25 06:45:43;;;;;;;19.70;12.00;;;;;;;9.64;97.01;99510.36;104668;1263;97943;-77
2023/03/25 06:48:36;;;;;;;19.30;11.40;;;;;;;9.68;96.97;99510.23;104653;1270;97920;-77
2023/03/25 06:51:22;;;;;;;16.20;10.70;;;;;;;9.75;97.11;99509.14;104790;1268;101329;-78
2023/03/25 06:54:08;;;;;;;18.60;11.50;;;;;;;9.80;97.12;99502.06;104819;1264;100812;-77
2023/03/25 06:56:54;;;;;;;18.00;11.30;;;;;;;9.87;97.34;99500.37;104631;1269;97990;-75
2023/03/25 06:59:39;;;;;;;19.80;11.30;;;;;;;9.93;97.38;99499.48;104684;1271;99369;-76
2023/03/25 07:02:25;;;;;;;16.60;11.30;;;;;;;10.01;97.33;99495.27;105016;1267;97929;-76
2023/03/25 07:05:11;;;;;;;14.70;10.50;;;;;;;10.05;97.10;99493.73;105035;1267;101977;-76
2023/03/25 07:07:57;;;;;;;18.70;11.20;;;;;;;10.07;97.02;99492.80;105007;1263;100905;-76
2023/03/25 07:10:43;;;;;;;16.60;10.50;;;;;;;10.09;97.18;99489.64;105229;1270;97994;-85
2023/03/25 07:13:30;;;;;;;18.50;11.80;;;;;;;10.14;96.92;99487.93;105718;1263;99244;-83
2023/03/25 07:16:16;;;;;;;18.90;12.60;;;;;;;10.21;96.92;99487.67;106003;1264;98421;-86
2023/03/25 07:19:01;;;;;;;19.60;12.40;;;;;;;10.32;97.35;99487.26;105474;1265;102224;-86
2023/03/25 07:21:47;;;;;;;13.60;9.90;;;;;;;10.43;97.22;99487.46;105738;1268;99201;-85
2023/03/25 07:24:33;;;;;;;16.30;10.30;;;;;;;10.52;96.90;99485.77;105554;1265;97956;-84
2023/03/25 07:27:18;;;;;;;19.20;14.40;;;;;;;10.61;96.89;99486.95;105845;1273;96073;-87
2023/03/25 07:30:10;;;;;;;16.70;12.20;;;;;;;10.72;96.74;99491.70;105961;1264;98012;-86
2023/03/25 07:32:56;;;;;;;22.40;15.30;;;;;;;10.82;96.43;99494.27;105623;1266;101365;-84
2023/03/25 07:35:42;;;;;;;21.80;15.00;;;;;;;10.91;96.06;99494.33;105737;1267;99263;-83
2023/03/25 07:38:28;;;;;;;18.60;12.10;;;;;;;11.02;95.85;99491.30;105395;1264;97955;-80
2023/03/25 07:41:13;;;;;;;14.30;11.50;;;;;;;11.12;95.42;99491.93;105621;1263;97981;-82
2023/03/25 07:44:08;;;;;;;14.00;10.10;;;;;;;11.24;95.12;99495.92;105674;1267;98404;-84
2023/03/25 07:46:55;;;;;;;15.00;9.80;;;;;;;11.34;94.45;99497.29;105778;1268;101446;-84
2023/03/25 07:49:41;;;;;;;15.50;8.50;;;;;;;11.48;94.51;99493.88;105425;1264;100396;-83
2023/03/25 07:52:27;;;;;;;14.80;9.20;;;;;;;11.63;94.53;99494.20;105503;1268;97962;-82
2023/03/25 07:55:13;;;;;;;13.90;8.90;;;;;;;11.72;94.25;99498.16;105581;1266;97992;-84
2023/03/25 07:58:00;;;;;;;13.30;8.40;;;;;;;11.77;93.80;99502.60;105418;1265;97907;-82
2023/03/25 08:00:46;;;;;;;13.70;8.00;;;;;;;11.78;93.20;99509.90;105832;1264;101816;-76
2023/03/25 08:03:32;;;;;;;16.70;9.20;;;;;;;11.77;92.68;99510.23;104812;1267;99181;-76
2023/03/25 08:06:17;;;;;;;12.90;8.80;;;;;;;11.78;92.51;99509.41;104681;1268;99260;-77
2023/03/25 08:09:03;;;;;;;12.80;7.90;;;;;;;11.80;92.53;99512.31;104597;1269;97966;-77
2023/03/25 08:11:50;;;;;;;13.90;8.10;;;;;;;11.82;92.22;99510.55;104723;1264;99203;-76
2023/03/25 08:14:35;;;;;;;11.90;7.60;;;;;;;11.83;92.32;99508.11;104663;1268;102591;-75
2023/03/25 08:17:22;;;;;;;21.00;12.30;;;;;;;11.86;92.27;99504.34;104734;1279;100871;-77
2023/03/25 08:20:08;;;;;;;14.60;9.90;;;;;;;11.86;91.90;99500.66;104721;1264;97942;-77
2023/03/25 08:22:53;;;;;;;17.80;10.80;;;;;;;11.87;91.93;99502.14;104689;1264;97987;-75
2023/03/25 08:25:42;;;;;;;13.10;9.60;;;;;;;11.89;92.24;99496.45;104774;1265;96074;-77
2023/03/25 08:28:27;;;;;;;12.70;9.00;;;;;;;11.95;92.45;99492.02;104682;1268;101351;-76
2023/03/25 08:31:14;;;;;;;10.20;7.70;;;;;;;12.00;92.30;99493.20;104709;1265;100420;-77
2023/03/25 08:34:00;;;;;;;14.40;7.60;;;;;;;12.03;92.07;99496.23;104697;1264;99096;-76
2023/03/25 08:36:46;;;;;;;12.30;7.40;;;;;;;12.04;91.66;99503.40;104645;1264;97916;-77
2023/03/25 08:39:38;;;;;;;19.00;8.00;;;;;;;12.07;91.74;99502.95;104740;1264;98514;-76
2023/03/25 08:42:23;;;;;;;15.00;8.30;;;;;;;12.12;91.59;99504.22;105053;1268;101332;-81
2023/03/25 08:45:09;;;;;;;14.80;8.20;;;;;;;12.11;90.84;99508.78;105505;1267;99104;-83
2023/03/25 08:47:55;;;;;;;13.10;7.10;;;;;;;12.10;91.03;99508.98;105390;1273;98052;-83
2023/03/25 08:50:41;;;;;;;9.40;6.40;;;;;;;12.10;90.99;99510.13;105267;1264;98076;-76
2023/03/25 08:53:27;;;;;;;11.00;5.80;;;;;;;12.11;90.67;99509.23;105046;1264;98459;-86
2023/03/25 08:56:13;;;;;;;8.70;7.50;;;;;;;12.08;89.98;99512.07;105889;1264;101370;-85
2023/03/25 08:58:59;;;;;;;13.50;7.30;;;;;;;12.05;89.73;99512.77;105499;1264;100653;-84
2023/03/25 09:01:45;;;;;;;11.20;7.40;;;;;;;12.03;89.55;99509.40;105732;1263;98884;-86
2023/03/25 09:04:31;;;;;;;11.80;7.80;;;;;;;12.05;89.54;99505.66;105433;1265;98041;-82
2023/03/25 09:07:18;;;;;;;10.40;6.00;;;;;;;12.08;89.61;99496.54;105198;1271;98501;-83
2023/03/25 09:10:06;;;;;;;10.10;7.30;;;;;;;12.10;89.50;99491.39;105858;1264;102376;-81
2023/03/25 09:12:52;;;;;;;12.90;8.40;;;;;;;12.17;89.66;99497.05;105494;1267;99165;-81
2023/03/25 09:15:37;;;;;;;10.20;6.80;;;;;;;12.25;89.65;99497.55;105798;1262;97875;-84
2023/03/25 09:18:23;;;;;;;12.50;6.60;;;;;;;12.30;89.00;99502.95;105606;1264;97885;-81
2023/03/25 09:21:09;;;;;;;11.20;7.20;;;;;;;12.32;88.45;99500.20;105878;1263;98175;-81
2023/03/25 09:23:55;;;;;;;15.00;7.40;;;;;;;12.33;88.24;99497.50;105813;1263;103254;-81
2023/03/25 09:26:41;;;;;;;14.60;7.80;;;;;;;12.37;88.36;99493.61;105589;1268;99168;-82
2023/03/25 09:29:28;;;;;;;11.10;6.70;;;;;;;12.44;88.02;99492.45;105250;1268;99021;-81
2023/03/25 09:32:13;;;;;;;14.10;5.40;;;;;;;12.51;88.13;99486.77;105605;1264;98101;-80
2023/03/25 09:35:03;;;;;;;14.40;5.80;;;;;;;12.58;87.79;99484.34;105499;1264;97904;-82
2023/03/25 09:37:49;;;;;;;8.80;5.70;;;;;;;12.62;87.14;99476.76;105758;1265;101460;-83
2023/03/25 09:40:35;;;;;;;9.30;4.90;;;;;;;12.62;86.74;99476.46;105717;1266;99351;-78
2023/03/25 09:43:55;;;;;;;7.70;4.70;;;;;;;12.62;86.39;99473.45;104965;1265;97983;-77
2023/03/25 09:46:43;;;;;;;8.30;4.80;;;;;;;12.67;86.34;99474.01;104950;1268;97980;-77
2023/03/25 09:49:45;;;;;;;9.00;3.90;;;;;;;12.75;86.50;99477.79;104847;1271;98541;-77
2023/03/25 09:52:53;;;;;;;8.90;5.40;;;;;;;12.90;86.77;99474.42;104703;1270;102057;-76
2023/03/25 09:55:45;;;;;;;7.40;4.00;;;;;;;13.05;86.25;99471.95;104723;1267;100399;-77
2023/03/25 09:58:41;;;;;;;8.60;4.80;;;;;;;13.13;85.08;99470.97;104744;1268;98060;-77
2023/03/25 10:02:04;;;;;;;10.20;4.80;;;;;;;13.18;84.48;99467.60;104729;1268;98119;-78
2023/03/25 10:05:10;;;;;;;6.10;4.60;;;;;;;13.25;84.30;99462.11;104722;1267;98511;-76
2023/03/25 10:08:30;;;;;;;7.60;3.70;;;;;;;13.28;83.56;99458.38;104971;1269;101300;-77
2023/03/25 10:11:28;;;;;;;6.40;3.70;;;;;;;13.25;82.55;99454.05;104722;1268;100384;-78
2023/03/25 10:14:20;;;;;;;9.10;4.40;;;;;;;13.25;82.44;99459.97;104933;1264;97895;-76
2023/03/25 10:17:17;;;;;;;5.30;3.60;;;;;;;13.31;83.22;99463.77;104950;1267;98077;-77
2023/03/25 10:20:18;;;;;;;10.00;3.90;;;;;;;13.38;82.99;99466.21;104993;1264;98424;-77
2023/03/25 10:23:12;;;;;;;5.30;3.60;;;;;;;13.43;82.47;99465.15;104890;1266;101415;-77
2023/03/25 10:26:04;;;;;;;8.80;3.50;;;;;;;13.50;81.87;99460.36;105041;1264;99541;-78
2023/03/25 10:28:57;;;;;;;6.80;3.40;;;;;;;13.55;81.23;99460.06;104898;1268;98648;-78
2023/03/25 10:31:52;;;;;;;6.20;2.90;;;;;;;13.60;80.50;99457.70;104966;1262;98061;-76
2023/03/25 10:34:48;;;;;;;6.10;2.90;;;;;;;13.66;80.14;99454.67;104799;1264;99779;-78
2023/03/25 10:37:40;;;;;;;7.00;3.30;;;;;;;13.71;80.37;99455.59;104957;1263;102340;-77
2023/03/25 10:40:37;;;;;;;3.90;3.10;;;;;;;13.78;80.51;99452.20;104863;1265;117004;-76
2023/03/25 10:43:35;;;;;;;6.90;3.40;;;;;;;13.86;80.30;99444.14;104675;1268;97945;-77
2023/03/25 10:46:29;;;;;;;6.10;3.30;;;;;;;13.93;79.58;99443.34;104791;1264;98037;-78
2023/03/25 10:49:19;;;;;;;5.40;3.90;;;;;;;14.01;79.03;99439.04;104926;1268;98455;-77
2023/03/25 10:52:05;;;;;;;5.70;3.40;;;;;;;14.11;79.09;99435.85;105046;1268;103765;-77
2023/03/25 10:54:54;;;;;;;6.60;3.50;;;;;;;14.19;78.95;99431.34;104940;1266;99157;-77
2023/03/25 10:57:40;;;;;;;10.90;5.80;;;;;;;14.24;78.13;99430.89;104795;1268;98136;-76
2023/03/25 11:00:26;;;;;;;7.80;3.80;;;;;;;14.24;78.28;99432.41;105288;1264;97990;-83
2023/03/25 11:03:26;;;;;;;11.50;6.10;;;;;;;14.26;78.07;99425.65;105845;1264;98394;-83
2023/03/25 11:06:29;;;;;;;8.70;5.20;;;;;;;14.25;77.65;99424.13;105746;1264;110672;-83
2023/03/25 11:09:29;;;;;;;6.20;3.10;;;;;;;14.22;77.08;99419.76;105762;1264;99176;-86
2023/03/25 11:12:19;;;;;;;5.50;2.60;;;;;;;14.18;75.91;99412.73;105526;1264;97933;-85
2023/03/25 11:15:05;;;;;;;9.20;3.00;;;;;;;14.12;75.44;99410.23;105588;1273;97977;-83
2023/03/25 11:17:59;;;;;;;7.40;4.20;;;;;;;14.12;76.64;99411.11;105671;1266;98520;-86
2023/03/25 11:20:51;;;;;;;4.10;3.00;;;;;;;14.15;77.26;99405.08;105891;1265;102102;-85
2023/03/25 11:23:43;;;;;;;9.30;4.60;;;;;;;14.14;77.57;99399.45;105902;1265;99182;-85
2023/03/25 11:26:37;;;;;;;8.00;4.00;;;;;;;14.16;78.03;99395.31;105459;1265;98382;-83
2023/03/25 11:29:26;;;;;;;8.10;5.10;;;;;;;14.20;78.45;99393.65;105420;1264;97891;-86
2023/03/25 11:32:15;;;;;;;7.20;5.50;;;;;;;14.27;78.08;99393.73;105665;1264;98381;-84
2023/03/25 11:35:15;;;;;;;8.10;4.20;;;;;;;14.31;77.50;99389.48;105832;1270;101366;-85
2023/03/25 11:38:18;;;;;;;6.90;4.10;;;;;;;14.34;77.14;99386.52;105650;1268;99796;-87
2023/03/25 11:41:06;;;;;;;6.50;3.70;;;;;;;14.41;77.05;99377.77;105609;1264;99190;-85
2023/03/25 11:43:51;;;;;;;7.20;4.20;;;;;;;14.47;76.67;99377.27;105402;1268;98084;-84
2023/03/25 11:46:48;;;;;;;7.10;3.90;;;;;;;14.50;77.00;99377.29;105506;1268;99199;-86
2023/03/25 11:49:37;;;;;;;11.00;5.10;;;;;;;14.51;76.63;99374.73;105539;1268;101355;-85
2023/03/25 11:52:31;;;;;;;6.50;3.90;;;;;;;14.48;75.84;99379.04;105810;1267;100360;-87
2023/03/25 11:55:22;;;;;;;7.50;4.20;;;;;;;14.45;75.52;99377.20;105858;1264;98000;-87
2023/03/25 11:58:14;;;;;;;12.20;3.80;;;;;;;14.43;75.24;99373.98;105485;1273;97986;-86
2023/03/25 12:01:06;;;;;;;6.40;3.20;;;;;;;14.38;74.88;99376.52;105622;1265;98056;-82
2023/03/25 12:04:05;;;;;;;5.80;2.70;;;;;;;14.34;74.44;99375.20;105701;1268;102014;-86
2023/03/25 12:07:07;;;;;;;6.20;3.30;;;;;;;14.33;74.70;99371.24;105435;1265;107754;-82
2023/03/25 12:09:57;;;;;;;6.20;3.30;;;;;;;14.29;74.43;99371.06;105636;1263;98093;-81
2023/03/25 12:13:07;;;;;;;5.40;3.20;;;;;;;14.29;74.58;99370.66;105627;1268;97916;-80
2023/03/25 12:16:07;;;;;;;7.10;3.90;;;;;;;14.27;74.57;99375.20;105688;1264;97660;-83
2023/03/25 12:19:12;;;;;;;8.20;4.30;;;;;;;14.24;74.65;99377.26;105949;1265;101421;-85
2023/03/25 12:22:21;;;;;;;7.00;4.20;;;;;;;14.19;74.40;99374.18;105598;1264;100311;-82
2023/03/25 12:25:25;;;;;;;7.60;4.40;;;;;;;14.11;75.07;99378.77;105561;1265;99544;-83
2023/03/25 12:28:27;;;;;;;10.10;5.60;;;;;;;13.94;76.13;99383.80;105771;1263;99137;-83
2023/03/25 12:31:34;;;;;;;16.20;6.70;;;;;;;13.75;76.93;99384.41;105827;1266;97957;-85
2023/03/25 12:34:31;;;;;;;10.00;5.90;;;;;;;13.59;77.65;99377.61;105578;1264;102151;-86
2023/03/25 12:37:52;;;;;;;11.30;5.90;;;;;;;13.54;78.72;99375.83;105647;1266;99275;-83
2023/03/25 12:40:48;;;;;;;11.60;5.40;;;;;;;13.56;79.45;99372.58;105607;1265;98012;-85
2023/03/25 12:44:06;;;;;;;7.90;5.40;;;;;;;13.56;79.58;99371.98;105612;1266;98157;-86
2023/03/25 12:47:09;;;;;;;7.30;4.20;;;;;;;13.54;78.67;99366.57;105825;1263;97933;-88
2023/03/25 12:50:31;;;;;;;6.90;5.10;;;;;;;13.45;78.12;99359.38;105530;1265;102576;-85
2023/03/25 12:53:44;;;;;;;7.20;4.60;;;;;;;13.39;78.71;99357.62;105619;1265;99108;-85
2023/03/25 12:56:46;;;;;;;9.50;5.60;;;;;;;13.51;80.61;99361.16;105539;1264;97969;-84
2023/03/25 12:59:45;;;;;;;7.20;4.80;;;;;;;13.65;81.40;99359.71;105647;1274;98081;-84
2023/03/25 13:02:47;;;;;;;9.00;5.10;;;;;;;13.75;80.29;99359.29;106029;1265;97938;-86
2023/03/25 13:05:43;;;;;;;7.70;4.30;;;;;;;13.93;80.42;99360.35;105707;1268;101429;-84
2023/03/25 13:08:49;;;;;;;5.50;3.00;;;;;;;14.04;79.44;99354.06;105732;1265;100801;-83